createdAt,value
2019-05-26T00:02:07.243Z,28.03
2019-05-26T00:04:56.040Z,23.87
2019-05-26T00:07:49.413Z,34.90
2019-05-26T00:10:40.211Z,22.37
2019-05-26T00:14:03.897Z,21.03
2019-05-26T00:16:55.530Z,21.90
2019-05-26T00:20:07.994Z,23.20
2019-05-26T00:23:48.802Z,22.97
2019-05-26T00:26:42.453Z,19.77
2019-05-26T00:29:59.793Z,19.77
2019-05-26T00:33:10.170Z,19.63
2019-05-26T00:36:30.111Z,17.73
2019-05-26T00:39:34.551Z,17.00
2019-05-26T00:43:13.396Z,15.73
2019-05-26T00:46:18.272Z,15.97
2019-05-26T00:48:34.805Z,15.87
2019-05-26T00:52:08.618Z,22.33
2019-05-26T00:55:02.603Z,15.23
2019-05-26T01:01:54.669Z,15.33
2019-05-26T01:05:11.213Z,16.00
2019-05-26T01:08:12.534Z,17.60
2019-05-26T01:16:34.250Z,20.90
2019-05-26T01:19:08.163Z,15.83
2019-05-26T01:22:11.701Z,22.60
2019-05-26T01:25:54.542Z,19.10
2019-05-26T01:29:52.125Z,20.33
2019-05-26T01:32:44.209Z,45.03
2019-05-26T01:35:48.822Z,48.73
2019-05-26T01:39:43.920Z,30.83
2019-05-26T01:43:08.050Z,27.27
2019-05-26T01:46:15.320Z,28.40
2019-05-26T01:49:39.216Z,29.23
2019-05-26T01:53:09.685Z,46.43
2019-05-26T01:56:10.320Z,28.10
2019-05-26T02:03:22.255Z,32.87
2019-05-26T02:06:14.113Z,44.47
2019-05-26T02:09:08.890Z,65.00
2019-05-26T02:12:30.039Z,105.03
2019-05-26T02:15:39.745Z,29.43
2019-05-26T02:19:23.257Z,25.73
2019-05-26T02:23:02.764Z,25.13
2019-05-26T02:26:16.727Z,21.83
2019-05-26T02:30:22.036Z,18.40
2019-05-26T02:34:32.088Z,19.97
2019-05-26T02:40:57.561Z,21.23
2019-05-26T02:44:22.895Z,29.67
2019-05-26T02:47:37.009Z,27.07
2019-05-26T02:50:46.315Z,31.77
2019-05-26T02:57:48.118Z,39.63
2019-05-26T03:01:10.711Z,62.63
2019-05-26T03:04:55.111Z,97.57
2019-05-26T03:08:13.696Z,115.53
2019-05-26T03:11:36.753Z,73.33
2019-05-26T03:18:14.864Z,136.47
2019-05-26T03:21:19.593Z,122.23
2019-05-26T03:24:02.493Z,108.73
2019-05-26T03:27:22.557Z,65.20
2019-05-26T03:30:30.200Z,80.47
2019-05-26T03:34:09.993Z,69.07
2019-05-26T03:44:26.030Z,43.47
2019-05-26T03:47:43.346Z,45.23
2019-05-26T03:51:23.950Z,44.03
2019-05-26T03:58:27.448Z,36.07
2019-05-26T04:01:31.090Z,29.40
2019-05-26T04:04:26.693Z,28.87
2019-05-26T04:07:30.143Z,26.23
2019-05-26T04:10:29.043Z,26.00
2019-05-26T04:28:09.198Z,26.07
2019-05-26T04:32:07.186Z,24.77
2019-05-26T04:35:35.674Z,22.63
2019-05-26T04:38:49.690Z,26.97
2019-05-26T04:42:31.253Z,38.60
2019-05-26T04:45:28.938Z,44.93
2019-05-26T04:49:37.890Z,61.33
2019-05-26T05:10:42.473Z,66.40
2019-05-26T05:18:15.889Z,37.63
2019-05-26T05:22:33.012Z,72.90
2019-05-26T05:26:51.028Z,24.20
2019-05-26T05:29:55.625Z,26.97
2019-05-26T05:38:01.750Z,44.77
2019-05-26T05:40:58.021Z,27.70
2019-05-26T05:44:35.885Z,26.73
2019-05-26T05:55:55.421Z,24.53
2019-05-26T05:59:23.710Z,24.03
2019-05-26T06:02:41.847Z,23.80
2019-05-26T06:05:54.338Z,25.10
2019-05-26T06:09:51.770Z,22.83
2019-05-26T06:13:13.928Z,20.50
2019-05-26T06:17:18.262Z,20.73
2019-05-26T06:20:30.055Z,20.40
2019-05-26T06:23:43.724Z,21.83
2019-05-26T06:30:33.066Z,21.87
2019-05-26T06:33:49.205Z,21.23
2019-05-26T06:37:35.636Z,19.23
2019-05-26T06:41:08.542Z,20.20
2019-05-26T06:44:24.128Z,21.23
2019-05-26T06:47:36.429Z,23.03
2019-05-26T06:50:24.092Z,23.70
2019-05-26T06:53:13.706Z,22.93
2019-05-26T06:56:07.885Z,22.30
2019-05-26T06:59:22.284Z,20.27
2019-05-26T07:02:24.269Z,21.43
2019-05-26T07:05:06.364Z,22.27
2019-05-26T07:07:54.250Z,22.70
2019-05-26T07:10:44.611Z,21.97
2019-05-26T07:13:32.401Z,21.87
2019-05-26T07:16:37.462Z,21.87
2019-05-26T07:19:20.081Z,20.63
2019-05-26T07:26:10.413Z,18.87
2019-05-26T07:29:08.983Z,18.50
2019-05-26T07:31:56.843Z,17.40
2019-05-26T07:34:44.617Z,18.53
2019-05-26T07:37:36.192Z,18.53
2019-05-26T07:40:24.192Z,17.63
2019-05-26T07:43:44.596Z,18.53
2019-05-26T07:46:37.513Z,17.27
2019-05-26T07:49:25.359Z,17.40
2019-05-26T07:52:23.970Z,18.20
2019-05-26T07:55:11.858Z,18.80
2019-05-26T07:57:59.621Z,17.57
2019-05-26T08:00:47.501Z,17.90
2019-05-26T08:04:08.862Z,16.50
2019-05-26T08:06:59.578Z,15.60
2019-05-26T08:09:48.278Z,16.77
2019-05-26T08:12:37.422Z,14.50
2019-05-26T08:15:26.108Z,13.17
2019-05-26T08:18:16.977Z,12.33
2019-05-26T08:24:08.168Z,12.43
2019-05-26T08:27:12.865Z,13.30
2019-05-26T08:29:58.199Z,12.47
2019-05-26T08:32:55.594Z,11.23
2019-05-26T08:35:43.500Z,13.70
2019-05-26T08:38:34.482Z,11.90
2019-05-26T08:41:45.929Z,11.37
2019-05-26T08:44:33.630Z,11.17
2019-05-26T08:47:24.117Z,12.43
2019-05-26T08:50:12.180Z,11.40
2019-05-26T08:56:04.455Z,11.20
2019-05-26T08:59:00.918Z,10.63
2019-05-26T09:02:07.949Z,9.93
2019-05-26T09:05:05.572Z,10.23
2019-05-26T09:07:53.373Z,9.53
2019-05-26T09:10:41.193Z,9.80
2019-05-26T09:13:29.607Z,10.57
2019-05-26T09:16:19.235Z,11.07
2019-05-26T09:19:14.828Z,10.73
2019-05-26T09:22:08.974Z,11.73
2019-05-26T09:25:24.284Z,12.43
2019-05-26T09:28:12.461Z,10.83
2019-05-26T09:31:51.907Z,10.60
2019-05-26T09:34:37.098Z,12.23
2019-05-26T09:37:31.843Z,12.60
2019-05-26T09:40:37.104Z,12.93
2019-05-26T09:43:29.211Z,11.87
2019-05-26T09:46:54.244Z,10.63
2019-05-26T09:50:03.007Z,11.37
2019-05-26T09:52:52.770Z,11.57
2019-05-26T09:55:41.237Z,9.03
2019-05-26T09:59:09.838Z,10.23
2019-05-26T10:02:09.614Z,7.13
2019-05-26T10:05:19.154Z,7.97
2019-05-26T10:08:06.842Z,7.97
2019-05-26T10:11:24.394Z,8.23
2019-05-26T10:14:12.417Z,8.63
2019-05-26T10:17:23.045Z,10.57
2019-05-26T10:20:08.717Z,9.53
2019-05-26T10:22:56.701Z,8.17
2019-05-26T10:25:44.764Z,8.10
2019-05-26T10:28:33.257Z,8.50
2019-05-26T10:31:21.176Z,7.80
2019-05-26T10:34:32.869Z,7.90
2019-05-26T10:41:32.008Z,7.07
2019-05-26T10:44:21.907Z,6.80
2019-05-26T10:47:09.691Z,6.20
2019-05-26T10:49:57.979Z,6.43
2019-05-26T10:52:46.358Z,7.10
2019-05-26T10:59:56.376Z,6.60
2019-05-26T11:03:27.230Z,6.97
2019-05-26T11:07:03.285Z,6.70
2019-05-26T11:10:38.486Z,7.93
2019-05-26T11:14:09.592Z,6.77
2019-05-26T11:17:10.500Z,7.30
2019-05-26T11:19:58.342Z,6.73
2019-05-26T11:22:46.747Z,4.93
2019-05-26T11:25:34.549Z,5.03
2019-05-26T11:28:22.525Z,4.93
2019-05-26T11:31:10.511Z,4.97
2019-05-26T11:33:59.290Z,4.33
2019-05-26T11:36:54.991Z,5.10
2019-05-26T11:39:43.162Z,5.43
2019-05-26T11:43:24.850Z,5.87
2019-05-26T11:46:34.687Z,5.57
2019-05-26T11:49:23.235Z,5.00
2019-05-26T11:52:26.771Z,5.07
2019-05-26T11:55:15.143Z,4.90
2019-05-26T11:58:02.980Z,4.80
2019-05-26T12:00:53.840Z,5.07
2019-05-26T12:03:59.737Z,4.83
2019-05-26T12:07:08.492Z,4.83
2019-05-26T12:09:56.915Z,4.47
2019-05-26T12:14:34.455Z,4.70
2019-05-26T12:15:44.083Z,4.77
2019-05-26T12:19:28.152Z,4.70
2019-05-26T12:22:39.560Z,4.37
2019-05-26T12:26:11.103Z,4.30
2019-05-26T12:29:44.951Z,4.17
2019-05-26T12:33:25.513Z,4.20
2019-05-26T12:37:00.121Z,4.37
2019-05-26T12:40:22.581Z,5.23
2019-05-26T12:43:14.606Z,4.40
2019-05-26T12:49:59.807Z,3.90
2019-05-26T12:57:39.064Z,3.67
2019-05-26T13:04:24.519Z,4.73
2019-05-26T13:07:25.773Z,3.97
2019-05-26T13:21:54.912Z,4.10
2019-05-26T13:25:38.239Z,4.37
2019-05-26T13:28:26.298Z,4.30
2019-05-26T13:31:18.994Z,4.20
2019-05-26T13:34:13.176Z,4.37
2019-05-26T13:37:21.055Z,4.40
2019-05-26T13:40:19.172Z,4.17
2019-05-26T13:43:09.274Z,4.43
2019-05-26T13:46:01.318Z,4.27
2019-05-26T13:49:11.733Z,4.63
2019-05-26T13:52:19.388Z,4.47
2019-05-26T13:55:43.118Z,4.97
2019-05-26T13:58:31.552Z,4.30
2019-05-26T14:01:24.122Z,4.47
2019-05-26T14:04:14.471Z,4.27
2019-05-26T14:07:28.844Z,4.70
2019-05-26T14:10:38.361Z,4.60
2019-05-26T14:13:27.469Z,4.30
2019-05-26T14:16:16.385Z,3.97
2019-05-26T14:19:11.131Z,4.27
2019-05-26T14:22:09.278Z,5.03
2019-05-26T14:24:57.314Z,5.07
2019-05-26T14:27:45.142Z,4.37
2019-05-26T14:30:38.216Z,4.80
2019-05-26T14:40:11.879Z,3.93
2019-05-26T14:43:05.314Z,4.40
2019-05-26T14:46:02.925Z,4.20
2019-05-26T14:48:52.003Z,5.27
2019-05-26T14:51:41.472Z,4.00
2019-05-26T14:54:29.619Z,4.57
2019-05-26T14:57:21.207Z,4.30
2019-05-26T15:00:28.753Z,5.10
2019-05-26T15:03:19.211Z,4.13
2019-05-26T15:06:07.718Z,4.33
2019-05-26T15:09:25.280Z,3.90
2019-05-26T15:12:23.382Z,3.80
2019-05-26T15:19:25.839Z,3.10
2019-05-26T15:30:37.685Z,3.67
2019-05-26T15:40:57.118Z,3.33
2019-05-26T15:43:55.325Z,2.93
2019-05-26T15:47:08.813Z,3.00
2019-05-26T15:49:56.143Z,3.20
2019-05-26T15:53:05.394Z,3.10
2019-05-26T15:55:55.273Z,3.00
2019-05-26T15:58:43.604Z,3.43
2019-05-26T16:01:32.407Z,3.13
2019-05-26T16:04:20.713Z,2.90
2019-05-26T16:07:37.030Z,3.17
2019-05-26T16:10:38.422Z,3.07
2019-05-26T16:13:28.672Z,2.90
2019-05-26T16:16:17.997Z,3.27
2019-05-26T16:19:06.623Z,2.90
2019-05-26T16:30:11.660Z,3.50
2019-05-26T16:37:18.629Z,2.53
2019-05-26T16:48:18.232Z,3.10
2019-05-26T16:51:38.633Z,3.97
2019-05-26T16:54:50.225Z,3.33
2019-05-26T17:02:09.128Z,2.70
2019-05-26T17:05:10.263Z,2.90
2019-05-26T17:08:47.456Z,2.83
2019-05-26T17:11:35.541Z,2.83
2019-05-26T17:14:23.864Z,2.70
2019-05-26T17:17:36.616Z,3.47
2019-05-26T17:20:23.801Z,2.57
2019-05-26T17:23:12.491Z,2.80
2019-05-26T17:26:00.354Z,2.80
2019-05-26T17:28:52.606Z,2.40
2019-05-26T17:31:42.137Z,3.40
2019-05-26T17:34:30.385Z,2.77
2019-05-26T17:40:14.798Z,2.63
2019-05-26T17:43:18.663Z,5.07
2019-05-26T17:46:06.534Z,3.57
2019-05-26T17:48:54.760Z,2.83
2019-05-26T17:54:39.412Z,2.70
2019-05-26T17:57:38.092Z,2.40
2019-05-26T18:00:26.524Z,2.47
2019-05-26T18:03:27.736Z,2.30
2019-05-26T18:06:16.036Z,2.30
2019-05-26T18:09:06.366Z,2.30
2019-05-26T18:12:01.877Z,2.70
2019-05-26T18:14:49.912Z,2.17
2019-05-26T18:17:57.751Z,2.73
2019-05-26T18:20:46.033Z,2.97
2019-05-26T18:23:34.062Z,2.60
2019-05-26T18:26:23.105Z,2.50
2019-05-26T18:29:11.203Z,2.70
2019-05-26T18:32:08.119Z,3.00
2019-05-26T18:36:02.806Z,2.43
2019-05-26T18:39:56.174Z,2.70
2019-05-26T18:50:42.722Z,2.70
2019-05-26T18:54:07.394Z,2.83
2019-05-26T18:57:33.665Z,2.60
2019-05-26T19:00:21.912Z,3.03
2019-05-26T19:06:20.270Z,2.67
2019-05-26T19:09:16.379Z,2.77
2019-05-26T19:12:23.483Z,3.23
2019-05-26T19:15:22.164Z,2.60
2019-05-26T19:18:20.593Z,2.57
2019-05-26T19:22:05.200Z,2.70
2019-05-26T19:24:54.422Z,2.67
2019-05-26T19:28:03.006Z,2.57
2019-05-26T19:31:45.658Z,2.80
2019-05-26T19:35:36.293Z,2.80
2019-05-26T19:38:48.354Z,3.13
2019-05-26T19:41:34.426Z,3.00
2019-05-26T19:44:22.629Z,3.00
2019-05-26T19:47:10.702Z,2.80
2019-05-26T19:50:01.038Z,3.30
2019-05-26T19:53:22.218Z,2.90
2019-05-26T19:56:14.509Z,3.50
2019-05-26T19:59:24.585Z,2.70
2019-05-26T20:02:18.768Z,3.60
2019-05-26T20:05:08.734Z,3.03
2019-05-26T20:08:25.051Z,3.30
2019-05-26T20:11:22.635Z,3.40
2019-05-26T20:14:11.259Z,3.30
2019-05-26T20:17:09.993Z,3.13
2019-05-26T20:19:55.349Z,3.77
2019-05-26T20:22:44.449Z,3.37
2019-05-26T20:25:32.506Z,3.30
2019-05-26T20:28:21.114Z,3.07
2019-05-26T20:31:32.005Z,3.87
2019-05-26T20:34:22.614Z,3.30
2019-05-26T20:37:10.328Z,3.63
2019-05-26T20:39:59.674Z,3.60
2019-05-26T20:42:49.047Z,3.20
2019-05-26T20:45:49.202Z,4.07
2019-05-26T20:48:39.843Z,3.60
2019-05-26T20:51:35.611Z,3.30
2019-05-26T20:54:43.191Z,3.67
2019-05-26T20:57:48.536Z,3.40
2019-05-26T21:04:49.421Z,3.40
2019-05-26T21:08:03.087Z,3.73
2019-05-26T21:11:26.322Z,3.50
2019-05-26T21:14:14.903Z,3.53
2019-05-26T21:17:06.408Z,3.80
2019-05-26T21:19:56.238Z,4.37
2019-05-26T21:23:38.794Z,4.17
2019-05-26T21:26:30.461Z,3.73
2019-05-26T21:33:12.108Z,4.63
2019-05-26T21:36:18.466Z,4.00
2019-05-26T21:39:16.670Z,4.47
2019-05-26T21:42:31.958Z,4.10
2019-05-26T21:45:25.360Z,6.57
2019-05-26T21:48:19.211Z,4.63
2019-05-26T21:51:43.577Z,4.50
2019-05-26T21:54:10.008Z,4.40
2019-05-26T22:01:31.171Z,4.10
2019-05-26T22:04:37.114Z,5.40
2019-05-26T22:11:22.167Z,5.17
2019-05-26T22:14:18.019Z,4.97
2019-05-26T22:17:07.886Z,5.40
2019-05-26T22:19:58.116Z,5.37
2019-05-26T22:23:17.482Z,5.27
2019-05-26T22:26:09.656Z,4.97
2019-05-26T22:29:09.665Z,5.77
2019-05-26T22:33:15.527Z,5.07
2019-05-26T22:35:38.275Z,5.33
2019-05-26T22:38:36.992Z,5.30
2019-05-26T22:41:23.795Z,5.30
2019-05-26T22:44:24.543Z,5.70
2019-05-26T22:48:29.230Z,5.67
2019-05-26T22:51:23.730Z,6.17
2019-05-26T22:54:15.359Z,6.80
2019-05-26T22:57:05.054Z,5.90
2019-05-26T22:59:53.519Z,5.50
2019-05-26T23:09:08.654Z,6.20
2019-05-26T23:12:54.988Z,5.90
2019-05-26T23:15:48.049Z,5.77
2019-05-26T23:18:46.924Z,6.50
2019-05-26T23:21:38.587Z,5.80
2019-05-26T23:24:34.157Z,5.70
2019-05-26T23:27:30.659Z,5.77
2019-05-26T23:30:21.483Z,5.63
2019-05-26T23:33:48.811Z,5.87
2019-05-26T23:36:47.024Z,5.80
2019-05-26T23:39:44.043Z,6.03
2019-05-26T23:42:42.442Z,7.03
2019-05-26T23:45:36.255Z,6.03
2019-05-26T23:49:23.190Z,7.33
2019-05-26T23:52:03.988Z,5.60
2019-05-26T23:55:16.235Z,6.40
2019-05-26T23:58:22.013Z,6.10
